createdAt,value
2019-01-26T00:02:53.278Z,-1.42
2019-01-26T00:07:55.318Z,-1.21
2019-01-26T00:12:57.230Z,-1.17
2019-01-26T00:17:59.157Z,-1.17
2019-01-26T00:23:01.200Z,-1.03
2019-01-26T00:28:03.251Z,-1.06
2019-01-26T00:33:05.360Z,-1.00
2019-01-26T00:38:08.394Z,-0.88
2019-01-26T00:43:10.406Z,-0.91
2019-01-26T00:48:12.312Z,-0.87
2019-01-26T00:53:14.265Z,-0.86
2019-01-26T00:58:16.390Z,-0.82
2019-01-26T01:03:18.501Z,-0.79
2019-01-26T01:08:20.875Z,-0.85
2019-01-26T01:13:22.875Z,-0.85
2019-01-26T01:18:24.825Z,-0.89
2019-01-26T01:23:26.756Z,-0.97
2019-01-26T01:28:28.716Z,-0.98
2019-01-26T01:33:30.754Z,-0.94
2019-01-26T01:38:32.770Z,-0.96
2019-01-26T01:43:34.767Z,-0.98
2019-01-26T01:48:37.146Z,-0.91
2019-01-26T01:53:39.085Z,-0.87
2019-01-26T01:58:41.154Z,-0.87
2019-01-26T02:03:43.115Z,-0.72
2019-01-26T02:08:45.049Z,-0.73
2019-01-26T02:13:46.969Z,-0.78
2019-01-26T02:18:49.002Z,-0.74
2019-01-26T02:23:51.324Z,-0.74
2019-01-26T02:28:53.636Z,-0.75
2019-01-26T02:33:55.588Z,-0.68
2019-01-26T02:38:57.517Z,-0.64
2019-01-26T02:43:59.431Z,-0.64
2019-01-26T02:49:01.356Z,-0.61
2019-01-26T02:54:03.482Z,-0.55
2019-01-26T02:59:05.413Z,-0.51
2019-01-26T03:04:07.587Z,-0.45
2019-01-26T03:09:09.831Z,-0.41
2019-01-26T03:14:11.842Z,-0.33
2019-01-26T03:19:13.894Z,-0.36
2019-01-26T03:24:15.934Z,-0.27
2019-01-26T03:29:17.849Z,-0.12
2019-01-26T03:34:19.783Z,-0.09
2019-01-26T03:39:21.709Z,0.10
2019-01-26T03:44:23.621Z,0.22
2019-01-26T03:49:25.662Z,0.31
2019-01-26T03:54:27.789Z,0.38
2019-01-26T03:59:32.110Z,0.44
2019-01-26T04:04:34.387Z,0.55
2019-01-26T04:09:42.524Z,0.56
2019-01-26T04:14:44.561Z,0.60
2019-01-26T04:19:46.494Z,0.59
2019-01-26T04:24:48.408Z,0.62
2019-01-26T04:29:50.421Z,0.65
2019-01-26T04:34:52.481Z,0.73
2019-01-26T04:39:54.498Z,0.76
2019-01-26T04:44:56.514Z,0.74
2019-01-26T04:49:58.498Z,0.76
2019-01-26T04:55:00.467Z,0.80
2019-01-26T05:00:04.719Z,0.79
2019-01-26T05:05:07.038Z,0.78
2019-01-26T05:10:15.146Z,0.78
2019-01-26T05:15:18.985Z,0.83
2019-01-26T05:20:22.621Z,0.87
2019-01-26T05:25:24.626Z,0.93
2019-01-26T05:30:27.971Z,0.94
2019-01-26T05:35:29.931Z,0.95
2019-01-26T05:40:31.945Z,0.93
2019-01-26T05:45:34.100Z,0.94
2019-01-26T05:50:36.089Z,1.08
2019-01-26T05:55:38.119Z,1.06
2019-01-26T06:00:40.059Z,1.03
2019-01-26T06:05:42.020Z,1.06
2019-01-26T06:10:43.936Z,1.03
2019-01-26T06:15:45.845Z,1.07
2019-01-26T06:20:47.756Z,0.96
2019-01-26T06:25:49.884Z,0.98
2019-01-26T06:30:51.802Z,0.97
2019-01-26T06:35:53.740Z,1.02
2019-01-26T06:40:55.856Z,0.99
2019-01-26T06:45:57.788Z,0.92
2019-01-26T06:50:59.672Z,1.01
2019-01-26T06:56:01.701Z,1.04
2019-01-26T07:01:03.770Z,1.12
2019-01-26T07:06:16.758Z,1.04
2019-01-26T07:11:20.095Z,1.07
2019-01-26T07:16:24.191Z,1.09
2019-01-26T07:21:26.213Z,1.10
2019-01-26T07:26:31.081Z,1.11
2019-01-26T07:31:34.223Z,1.25
2019-01-26T07:36:36.553Z,1.21
2019-01-26T07:41:38.657Z,1.23
2019-01-26T07:46:40.775Z,1.29
2019-01-26T07:51:42.672Z,1.39
2019-01-26T07:56:44.918Z,1.46
2019-01-26T08:01:47.074Z,1.50
2019-01-26T08:06:49.501Z,1.50
2019-01-26T08:11:51.648Z,1.56
2019-01-26T08:16:53.563Z,1.58
2019-01-26T08:21:55.726Z,1.72
2019-01-26T08:26:57.934Z,1.71
2019-01-26T08:31:59.834Z,1.76
2019-01-26T08:37:01.909Z,1.87
2019-01-26T08:42:04.212Z,1.82
2019-01-26T08:47:06.137Z,1.84
2019-01-26T08:52:08.185Z,1.84
2019-01-26T08:57:11.291Z,1.91
2019-01-26T09:02:25.493Z,1.82
2019-01-26T09:07:27.653Z,1.94
2019-01-26T09:12:30.244Z,1.99
2019-01-26T09:17:32.258Z,2.04
2019-01-26T09:22:34.178Z,1.98
2019-01-26T09:27:36.402Z,2.00
2019-01-26T09:32:38.435Z,2.05
2019-01-26T09:37:40.556Z,2.09
2019-01-26T09:42:42.719Z,2.13
2019-01-26T09:47:44.854Z,2.24
2019-01-26T09:52:46.877Z,2.28
2019-01-26T09:57:49.004Z,2.31
2019-01-26T10:02:51.132Z,2.43
2019-01-26T10:07:53.238Z,2.51
2019-01-26T10:12:55.155Z,2.51
2019-01-26T10:17:57.380Z,2.42
2019-01-26T10:22:59.379Z,2.53
2019-01-26T10:28:01.544Z,2.53
2019-01-26T10:33:04.805Z,2.61
2019-01-26T10:38:06.705Z,2.65
2019-01-26T10:43:08.750Z,2.77
2019-01-26T10:48:10.956Z,2.85
2019-01-26T10:53:13.218Z,2.85
2019-01-26T10:58:15.301Z,2.78
2019-01-26T11:03:17.524Z,2.81
2019-01-26T11:08:19.551Z,2.79
2019-01-26T11:13:21.588Z,3.01
2019-01-26T11:18:23.635Z,3.01
2019-01-26T11:23:25.665Z,2.90
2019-01-26T11:28:27.655Z,3.03
2019-01-26T11:33:29.760Z,3.19
2019-01-26T11:38:31.689Z,3.19
2019-01-26T11:43:33.633Z,3.22
2019-01-26T11:48:39.510Z,3.18
2019-01-26T11:53:41.507Z,3.18
2019-01-26T11:58:43.407Z,3.21
2019-01-26T12:03:49.382Z,3.33
2019-01-26T12:08:51.723Z,3.31
2019-01-26T12:13:53.662Z,3.39
2019-01-26T12:18:55.736Z,3.34
2019-01-26T12:23:57.640Z,3.40
2019-01-26T12:28:59.645Z,3.42
2019-01-26T12:34:01.583Z,3.43
2019-01-26T12:39:08.105Z,3.43
2019-01-26T12:44:10.132Z,3.51
2019-01-26T12:49:12.250Z,3.46
2019-01-26T12:54:14.319Z,3.47
2019-01-26T12:59:16.513Z,3.55
2019-01-26T13:04:19.035Z,3.57
2019-01-26T13:09:21.288Z,3.63
2019-01-26T13:14:23.327Z,3.59
2019-01-26T13:19:25.334Z,3.55
2019-01-26T13:24:27.371Z,3.60
2019-01-26T13:29:29.363Z,3.63
2019-01-26T13:34:31.432Z,3.66
2019-01-26T13:39:33.382Z,3.72
2019-01-26T13:44:36.547Z,3.73
2019-01-26T13:49:43.989Z,3.65
2019-01-26T13:54:42.418Z,3.67
2019-01-26T13:59:44.319Z,3.77
2019-01-26T14:04:46.431Z,3.79
2019-01-26T14:09:48.339Z,3.74
2019-01-26T14:14:50.694Z,3.81
2019-01-26T14:19:52.657Z,3.84
2019-01-26T14:24:54.576Z,3.85
2019-01-26T14:29:56.471Z,3.79
2019-01-26T14:34:58.420Z,3.82
2019-01-26T14:40:00.747Z,3.83
2019-01-26T14:45:03.988Z,3.83
2019-01-26T14:50:07.451Z,3.79
2019-01-26T14:55:12.424Z,3.84
2019-01-26T15:00:17.897Z,3.81
2019-01-26T15:05:21.241Z,3.87
2019-01-26T15:10:23.434Z,3.87
2019-01-26T15:15:25.491Z,3.92
2019-01-26T15:20:30.173Z,3.92
2019-01-26T15:25:32.389Z,3.89
2019-01-26T15:30:36.537Z,3.80
2019-01-26T15:35:38.570Z,3.81
2019-01-26T15:40:40.685Z,3.85
2019-01-26T15:45:44.826Z,3.87
2019-01-26T15:50:46.781Z,3.82
2019-01-26T15:55:49.190Z,3.85
2019-01-26T16:00:51.250Z,3.87
2019-01-26T16:05:53.283Z,3.86
2019-01-26T16:10:55.290Z,3.91
2019-01-26T16:15:57.225Z,3.84
2019-01-26T16:20:59.129Z,3.88
2019-01-26T16:26:01.191Z,3.87
2019-01-26T16:31:03.372Z,3.97
2019-01-26T16:36:05.420Z,3.90
2019-01-26T16:41:07.464Z,3.96
2019-01-26T16:46:09.517Z,3.98
2019-01-26T16:51:11.529Z,3.98
2019-01-26T16:56:13.642Z,3.94
2019-01-26T17:01:15.644Z,3.96
2019-01-26T17:06:17.572Z,3.97
2019-01-26T17:11:19.497Z,3.96
2019-01-26T17:16:21.766Z,3.98
2019-01-26T17:21:23.857Z,3.93
2019-01-26T17:26:25.804Z,3.95
2019-01-26T17:31:27.771Z,3.91
2019-01-26T17:36:31.724Z,3.93
2019-01-26T17:41:33.663Z,3.96
2019-01-26T17:46:35.725Z,3.95
2019-01-26T17:51:37.926Z,4.13
2019-01-26T17:56:39.866Z,4.18
2019-01-26T18:01:41.776Z,4.09
2019-01-26T18:06:44.198Z,4.17
2019-01-26T18:11:46.163Z,4.24
2019-01-26T18:16:48.047Z,4.25
2019-01-26T18:21:50.577Z,4.35
2019-01-26T18:26:52.617Z,4.35
2019-01-26T18:31:54.622Z,4.35
2019-01-26T18:36:56.644Z,4.35
2019-01-26T18:41:58.949Z,4.38
2019-01-26T18:47:00.941Z,4.36
2019-01-26T18:52:03.247Z,4.38
2019-01-26T18:57:05.385Z,4.51
2019-01-26T19:02:07.481Z,4.44
2019-01-26T19:07:09.399Z,4.33
2019-01-26T19:12:11.418Z,4.39
2019-01-26T19:17:13.813Z,4.38
2019-01-26T19:22:16.140Z,4.38
2019-01-26T19:27:18.322Z,4.40
2019-01-26T19:32:20.355Z,4.31
2019-01-26T19:37:22.257Z,4.39
2019-01-26T19:42:24.356Z,4.35
2019-01-26T19:47:26.478Z,4.26
2019-01-26T19:52:28.377Z,4.37
2019-01-26T19:57:30.687Z,4.39
2019-01-26T20:02:32.751Z,4.37
2019-01-26T20:07:34.921Z,4.55
2019-01-26T20:12:36.965Z,4.44
2019-01-26T20:17:39.168Z,4.49
2019-01-26T20:22:41.100Z,4.44
2019-01-26T20:27:43.219Z,4.32
2019-01-26T20:32:45.228Z,4.35
2019-01-26T20:37:47.584Z,4.42
2019-01-26T20:42:49.744Z,4.37
2019-01-26T20:47:51.768Z,4.39
2019-01-26T20:52:53.798Z,4.35
2019-01-26T20:57:55.749Z,4.23
2019-01-26T21:02:57.886Z,4.19
2019-01-26T21:07:59.832Z,4.18
2019-01-26T21:13:01.788Z,4.16
2019-01-26T21:18:03.857Z,4.16
2019-01-26T21:23:06.084Z,4.04
2019-01-26T21:28:08.217Z,3.94
2019-01-26T21:33:10.111Z,3.81
2019-01-26T21:38:12.106Z,3.92
2019-01-26T21:43:14.083Z,3.86
2019-01-26T21:48:16.158Z,4.03
2019-01-26T21:53:18.163Z,4.03
2019-01-26T21:58:20.098Z,3.95
2019-01-26T22:03:22.012Z,3.93
2019-01-26T22:08:24.040Z,3.91
2019-01-26T22:13:26.191Z,3.93
2019-01-26T22:18:28.269Z,3.89
2019-01-26T22:23:30.272Z,3.63
2019-01-26T22:28:32.297Z,3.55
2019-01-26T22:33:34.193Z,3.50
2019-01-26T22:38:36.132Z,3.50
2019-01-26T22:43:38.041Z,3.33
2019-01-26T22:48:40.178Z,3.45
2019-01-26T22:53:42.305Z,3.72
2019-01-26T22:58:44.223Z,3.83
2019-01-26T23:04:35.149Z,3.91
2019-01-26T23:09:59.377Z,3.77
2019-01-26T23:15:21.837Z,3.77
2019-01-26T23:20:51.949Z,3.84
2019-01-26T23:26:06.155Z,3.78
2019-01-26T23:31:19.266Z,3.61
2019-01-26T23:36:21.503Z,3.50
2019-01-26T23:41:23.585Z,3.41
2019-01-26T23:46:25.618Z,3.33
2019-01-26T23:51:27.637Z,3.42
2019-01-26T23:56:29.548Z,3.38
